Time,TemperatureF,DewpointF,PressureIn,WindDirection,WindDirectionDegrees,WindSpeedMPH,WindSpeedGustMPH,Humidity,HourlyPrecipIn,Conditions,Clouds,dailyrainin,SoftwareType,DateUTC
2013-07-18 00:20:00,58.3,54.1,29.98,N/A,-737280,0.0,-999.0,86,0.00,,,0.00,Wunderground v.1.15,2013-07-18 07:20:00,
2013-07-18 00:25:00,58.3,54.1,29.98,N/A,-737280,0.0,-999.0,86,0.00,,,0.00,Wunderground v.1.15,2013-07-18 07:25:00,
2013-07-18 00:30:00,58.3,54.1,29.98,N/A,-737280,0.0,-999.0,86,0.00,,,0.00,Wunderground v.1.15,2013-07-18 07:30:00,
2013-07-18 00:35:00,58.3,54.1,29.98,N/A,-737280,0.0,-999.0,86,0.00,,,0.00,Wunderground v.1.15,2013-07-18 07:35:00,
2013-07-18 00:40:00,58.3,54.1,29.98,N/A,-737280,0.0,-999.0,86,0.00,,,0.00,Wunderground v.1.15,2013-07-18 07:40:00,
2013-07-18 00:55:00,58.6,54.1,29.98,N/A,-737280,0.0,-999.0,85,0.00,,,0.00,Wunderground v.1.15,2013-07-18 07:55:00,
2013-07-18 01:00:00,58.6,54.1,29.98,N/A,-737280,0.0,-999.0,85,0.00,,,0.00,Wunderground v.1.15,2013-07-18 08:00:00,
2013-07-18 01:05:00,58.6,54.1,29.98,N/A,-737280,0.0,-999.0,85,0.00,,,0.00,Wunderground v.1.15,2013-07-18 08:05:00,
2013-07-18 01:10:00,58.6,54.1,29.98,N/A,-737280,0.0,-999.0,85,0.00,,,0.00,Wunderground v.1.15,2013-07-18 08:10:00,
2013-07-18 01:15:00,57.6,53.8,29.97,N/A,-737280,0.0,-999.0,87,0.00,,,0.00,Wunderground v.1.15,2013-07-18 08:15:00,
2013-07-18 01:20:00,57.6,53.8,29.97,N/A,-737280,0.0,-999.0,87,0.00,,,0.00,Wunderground v.1.15,2013-07-18 08:20:00,
2013-07-18 01:25:00,57.6,53.8,29.97,N/A,-737280,0.0,-999.0,87,0.00,,,0.00,Wunderground v.1.15,2013-07-18 08:25:00,
2013-07-18 01:30:00,57.6,53.8,29.97,N/A,-737280,0.0,-999.0,87,0.00,,,0.00,Wunderground v.1.15,2013-07-18 08:30:00,
2013-07-18 01:35:00,57.6,53.8,29.97,N/A,-737280,0.0,-999.0,87,0.00,,,0.00,Wunderground v.1.15,2013-07-18 08:35:00,
2013-07-18 01:40:00,57.6,53.8,29.97,N/A,-737280,0.0,-999.0,87,0.00,,,0.00,Wunderground v.1.15,2013-07-18 08:40:00,
2013-07-18 01:45:00,56.6,52.8,29.96,N/A,-737280,0.0,-999.0,87,0.00,,,0.00,Wunderground v.1.15,2013-07-18 08:45:00,
2013-07-18 01:50:00,56.6,52.8,29.96,N/A,-737280,0.0,-999.0,87,0.00,,,0.00,Wunderground v.1.15,2013-07-18 08:50:00,
2013-07-18 01:55:00,56.6,52.8,29.96,N/A,-737280,0.0,-999.0,87,0.00,,,0.00,Wunderground v.1.15,2013-07-18 08:55:00,
2013-07-18 02:00:00,56.6,52.8,29.96,N/A,-737280,0.0,-999.0,87,0.00,,,0.00,Wunderground v.1.15,2013-07-18 09:00:00,
2013-07-18 02:05:00,56.6,52.8,29.96,N/A,-737280,0.0,-999.0,87,0.00,,,0.00,Wunderground v.1.15,2013-07-18 09:05:00,
2013-07-18 02:10:00,56.6,52.8,29.96,N/A,-737280,0.0,-999.0,87,0.00,,,0.00,Wunderground v.1.15,2013-07-18 09:10:00,
2013-07-18 02:15:00,56.4,52.6,29.96,N/A,-737280,0.0,-999.0,87,0.00,,,0.00,Wunderground v.1.15,2013-07-18 09:15:00,
2013-07-18 02:20:00,56.4,52.6,29.96,N/A,-737280,0.0,-999.0,87,0.00,,,0.00,Wunderground v.1.15,2013-07-18 09:20:00,
2013-07-18 02:25:00,56.4,52.6,29.96,N/A,-737280,0.0,-999.0,87,0.00,,,0.00,Wunderground v.1.15,2013-07-18 09:25:00,
2013-07-18 02:30:00,56.4,52.6,29.96,N/A,-737280,0.0,-999.0,87,0.00,,,0.00,Wunderground v.1.15,2013-07-18 09:30:00,
2013-07-18 02:35:00,56.4,52.6,29.96,N/A,-737280,0.0,-999.0,87,0.00,,,0.00,Wunderground v.1.15,2013-07-18 09:35:00,
2013-07-18 02:40:00,56.4,52.6,29.96,N/A,-737280,0.0,-999.0,87,0.00,,,0.00,Wunderground v.1.15,2013-07-18 09:40:00,
2013-07-18 02:45:00,55.5,52.0,29.95,N/A,-737280,0.0,-999.0,88,0.00,,,0.00,Wunderground v.1.15,2013-07-18 09:45:00,
2013-07-18 02:50:00,55.5,52.0,29.95,N/A,-737280,0.0,-999.0,88,0.00,,,0.00,Wunderground v.1.15,2013-07-18 09:50:00,
2013-07-18 02:55:00,55.5,52.0,29.95,N/A,-737280,0.0,-999.0,88,0.00,,,0.00,Wunderground v.1.15,2013-07-18 09:55:00,
2013-07-18 03:00:00,55.5,52.0,29.95,N/A,-737280,0.0,-999.0,88,0.00,,,0.00,Wunderground v.1.15,2013-07-18 10:00:00,
2013-07-18 03:05:00,55.5,52.0,29.95,N/A,-737280,0.0,-999.0,88,0.00,,,0.00,Wunderground v.1.15,2013-07-18 10:05:00,
2013-07-18 03:10:00,55.5,52.0,29.95,N/A,-737280,0.0,-999.0,88,0.00,,,0.00,Wunderground v.1.15,2013-07-18 10:10:00,
2013-07-18 03:15:00,56.0,53.1,29.96,N/A,-737280,0.0,-999.0,90,0.00,,,0.00,Wunderground v.1.15,2013-07-18 10:15:00,
2013-07-18 03:20:00,56.0,53.1,29.96,N/A,-737280,0.0,-999.0,90,0.00,,,0.00,Wunderground v.1.15,2013-07-18 10:20:00,
2013-07-18 03:25:00,56.0,53.1,29.96,N/A,-737280,0.0,-999.0,90,0.00,,,0.00,Wunderground v.1.15,2013-07-18 10:25:00,
2013-07-18 03:30:00,56.0,53.1,29.96,N/A,-737280,0.0,-999.0,90,0.00,,,0.00,Wunderground v.1.15,2013-07-18 10:30:00,
2013-07-18 03:35:00,56.0,53.1,29.96,N/A,-737280,0.0,-999.0,90,0.00,,,0.00,Wunderground v.1.15,2013-07-18 10:35:00,
2013-07-18 03:45:00,55.1,52.5,29.95,SW,225,0.0,-999.0,91,0.00,,,0.00,Wunderground v.1.15,2013-07-18 10:45:00,
2013-07-18 03:50:00,55.1,52.5,29.95,SW,225,0.0,-999.0,91,0.00,,,0.00,Wunderground v.1.15,2013-07-18 10:50:00,
2013-07-18 03:55:00,55.1,52.5,29.95,SW,225,0.0,-999.0,91,0.00,,,0.00,Wunderground v.1.15,2013-07-18 10:55:00,
2013-07-18 04:00:00,55.1,52.5,29.95,SW,225,0.0,-999.0,91,0.00,,,0.00,Wunderground v.1.15,2013-07-18 11:00:00,
2013-07-18 04:05:00,55.1,52.5,29.95,SW,225,0.0,-999.0,91,0.00,,,0.00,Wunderground v.1.15,2013-07-18 11:05:00,
2013-07-18 04:10:00,55.1,52.5,29.95,SW,225,0.0,-999.0,91,0.00,,,0.00,Wunderground v.1.15,2013-07-18 11:10:00,
2013-07-18 04:15:00,54.5,51.9,29.96,N/A,-737280,0.0,-999.0,91,0.00,,,0.00,Wunderground v.1.15,2013-07-18 11:15:00,
2013-07-18 04:20:00,54.5,51.9,29.96,N/A,-737280,0.0,-999.0,91,0.00,,,0.00,Wunderground v.1.15,2013-07-18 11:20:00,
2013-07-18 04:25:00,54.5,51.9,29.96,N/A,-737280,0.0,-999.0,91,0.00,,,0.00,Wunderground v.1.15,2013-07-18 11:25:00,
2013-07-18 04:30:00,54.5,51.9,29.96,N/A,-737280,0.0,-999.0,91,0.00,,,0.00,Wunderground v.1.15,2013-07-18 11:30:00,
2013-07-18 04:35:00,54.5,51.9,29.96,N/A,-737280,0.0,-999.0,91,0.00,,,0.00,Wunderground v.1.15,2013-07-18 11:35:00,
2013-07-18 04:40:00,54.5,51.9,29.96,N/A,-737280,0.0,-999.0,91,0.00,,,0.00,Wunderground v.1.15,2013-07-18 11:40:00,
2013-07-18 04:45:00,54.2,51.9,29.96,N/A,-737280,0.0,-999.0,92,0.00,,,0.00,Wunderground v.1.15,2013-07-18 11:45:00,
2013-07-18 04:50:00,54.2,51.9,29.96,N/A,-737280,0.0,-999.0,92,0.00,,,0.00,Wunderground v.1.15,2013-07-18 11:50:00,
2013-07-18 04:55:00,54.2,51.9,29.96,N/A,-737280,0.0,-999.0,92,0.00,,,0.00,Wunderground v.1.15,2013-07-18 11:55:00,
2013-07-18 05:00:00,54.2,51.9,29.96,N/A,-737280,0.0,-999.0,92,0.00,,,0.00,Wunderground v.1.15,2013-07-18 12:00:00,
2013-07-18 05:05:00,54.2,51.9,29.96,N/A,-737280,0.0,-999.0,92,0.00,,,0.00,Wunderground v.1.15,2013-07-18 12:05:00,
2013-07-18 05:10:00,54.2,51.9,29.96,N/A,-737280,0.0,-999.0,92,0.00,,,0.00,Wunderground v.1.15,2013-07-18 12:10:00,
2013-07-18 05:15:00,53.1,51.1,29.97,N/A,-737280,0.0,-999.0,93,0.00,,,0.00,Wunderground v.1.15,2013-07-18 12:15:00,
2013-07-18 05:20:00,53.1,51.1,29.97,N/A,-737280,0.0,-999.0,93,0.00,,,0.00,Wunderground v.1.15,2013-07-18 12:20:00,
2013-07-18 05:25:00,53.1,51.1,29.97,N/A,-737280,0.0,-999.0,93,0.00,,,0.00,Wunderground v.1.15,2013-07-18 12:25:00,
2013-07-18 05:30:00,53.1,51.1,29.97,N/A,-737280,0.0,-999.0,93,0.00,,,0.00,Wunderground v.1.15,2013-07-18 12:30:00,
2013-07-18 05:35:00,53.1,51.1,29.97,N/A,-737280,0.0,-999.0,93,0.00,,,0.00,Wunderground v.1.15,2013-07-18 12:35:00,
2013-07-18 05:40:00,53.1,51.1,29.97,N/A,-737280,0.0,-999.0,93,0.00,,,0.00,Wunderground v.1.15,2013-07-18 12:40:00,
2013-07-18 05:45:00,53.6,51.3,29.97,WSW,248,0.0,-999.0,92,0.00,,,0.00,Wunderground v.1.15,2013-07-18 12:45:00,
2013-07-18 05:50:00,53.6,51.3,29.97,WSW,248,0.0,-999.0,92,0.00,,,0.00,Wunderground v.1.15,2013-07-18 12:50:00,
2013-07-18 05:55:00,53.6,51.3,29.97,WSW,248,0.0,-999.0,92,0.00,,,0.00,Wunderground v.1.15,2013-07-18 12:55:00,
2013-07-18 06:00:00,53.6,51.3,29.97,WSW,248,0.0,-999.0,92,0.00,,,0.00,Wunderground v.1.15,2013-07-18 13:00:00,
2013-07-18 06:20:00,53.5,51.5,29.98,WSW,243,0.0,0.0,93,0.00,,,0.00,Wunderground v.1.15,2013-07-18 13:20:00,
2013-07-18 06:26:00,53.4,51.4,29.98,WSW,243,0.0,0.0,93,0.00,,,0.00,Wunderground v.1.15,2013-07-18 13:26:00,
2013-07-18 06:32:00,53.6,51.6,29.98,WSW,243,0.0,0.0,93,0.00,,,0.00,Wunderground v.1.15,2013-07-18 13:32:00,
2013-07-18 06:38:00,53.7,51.7,29.98,WSW,243,0.0,0.0,93,0.00,,,0.00,Wunderground v.1.15,2013-07-18 13:38:00,
2013-07-18 06:44:00,53.8,51.8,29.98,WSW,243,0.0,0.0,93,0.00,,,0.00,Wunderground v.1.15,2013-07-18 13:44:00,
2013-07-18 06:50:00,53.9,51.9,29.98,WSW,243,0.0,0.0,93,0.00,,,0.00,Wunderground v.1.15,2013-07-18 13:50:00,
2013-07-18 06:56:00,54.0,52.0,29.98,WSW,243,0.0,0.0,93,0.00,,,0.00,Wunderground v.1.15,2013-07-18 13:56:00,
2013-07-18 07:02:00,54.4,52.7,29.99,WSW,245,0.0,0.0,94,0.00,,,0.00,Wunderground v.1.15,2013-07-18 14:02:00,
2013-07-18 07:08:00,55.2,53.5,29.98,WNW,283,0.0,0.0,94,0.00,,,0.00,Wunderground v.1.15,2013-07-18 14:08:00,
2013-07-18 07:14:00,55.9,54.2,29.99,WNW,282,0.0,0.0,94,0.00,,,0.00,Wunderground v.1.15,2013-07-18 14:14:00,
2013-07-18 07:20:00,56.6,54.6,29.99,WNW,297,0.0,0.0,93,0.00,,,0.00,Wunderground v.1.15,2013-07-18 14:20:00,
2013-07-18 07:26:00,57.1,55.1,29.99,WNW,298,0.0,0.0,93,0.00,,,0.00,Wunderground v.1.15,2013-07-18 14:26:00,
2013-07-18 07:32:00,58.4,56.4,29.99,North,350,0.0,0.0,93,0.00,,,0.00,Wunderground v.1.15,2013-07-18 14:32:00,
2013-07-18 07:38:00,59.5,56.9,29.98,North,359,0.0,2.0,91,0.00,,,0.00,Wunderground v.1.15,2013-07-18 14:38:00,